sensor_id;sensor_type;location;lat;lon;timestamp;pressure;altitude;pressure_sealevel;temperature;humidity
58598;BME280;64549;46.910;16.844;2022-11-03T00:01:44;100388.22;;;11.20;100.00
58598;BME280;64549;46.910;16.844;2022-11-03T00:06:48;100388.38;;;11.07;100.00
58598;BME280;64549;46.910;16.844;2022-11-03T00:11:50;100384.44;;;10.89;100.00
58598;BME280;64549;46.910;16.844;2022-11-03T00:16:51;100371.88;;;10.69;100.00
58598;BME280;64549;46.910;16.844;2022-11-03T00:21:51;100387.41;;;10.52;100.00
58598;BME280;64549;46.910;16.844;2022-11-03T00:26:52;100385.19;;;10.34;100.00
58598;BME280;64549;46.910;16.844;2022-11-03T00:31:52;100381.06;;;10.19;100.00
58598;BME280;64549;46.910;16.844;2022-11-03T00:36:53;100384.59;;;10.08;100.00
58598;BME280;64549;46.910;16.844;2022-11-03T00:41:53;100384.69;;;9.95;100.00
58598;BME280;64549;46.910;16.844;2022-11-03T00:46:54;100386.00;;;9.77;100.00
58598;BME280;64549;46.910;16.844;2022-11-03T00:51:55;100388.63;;;9.66;100.00
58598;BME280;64549;46.910;16.844;2022-11-03T00:56:55;100393.06;;;9.54;100.00
58598;BME280;64549;46.910;16.844;2022-11-03T01:01:56;100388.81;;;9.40;100.00
58598;BME280;64549;46.910;16.844;2022-11-03T01:06:58;100387.69;;;9.31;100.00
58598;BME280;64549;46.910;16.844;2022-11-03T01:12:16;100397.16;;;9.22;100.00
58598;BME280;64549;46.910;16.844;2022-11-03T01:17:25;100391.91;;;9.09;100.00
58598;BME280;64549;46.910;16.844;2022-11-03T01:22:26;100400.66;;;8.98;100.00
58598;BME280;64549;46.910;16.844;2022-11-03T01:27:27;100396.53;;;8.94;100.00
58598;BME280;64549;46.910;16.844;2022-11-03T01:32:27;100399.13;;;8.83;100.00
58598;BME280;64549;46.910;16.844;2022-11-03T01:37:28;100403.78;;;8.79;100.00
58598;BME280;64549;46.910;16.844;2022-11-03T01:42:28;100389.91;;;8.76;100.00
58598;BME280;64549;46.910;16.844;2022-11-03T01:47:34;100387.38;;;8.74;100.00
58598;BME280;64549;46.910;16.844;2022-11-03T01:52:48;100382.50;;;8.68;100.00
58598;BME280;64549;46.910;16.844;2022-11-03T01:58:03;100377.19;;;8.68;100.00
58598;BME280;64549;46.910;16.844;2022-11-03T02:03:05;100370.75;;;8.59;100.00
58598;BME280;64549;46.910;16.844;2022-11-03T02:08:10;100371.81;;;8.56;100.00
58598;BME280;64549;46.910;16.844;2022-11-03T02:13:21;100363.75;;;8.45;100.00
58598;BME280;64549;46.910;16.844;2022-11-03T02:18:27;100368.75;;;8.37;100.00
58598;BME280;64549;46.910;16.844;2022-11-03T02:23:39;100376.53;;;8.27;100.00
58598;BME280;64549;46.910;16.844;2022-11-03T02:28:41;100373.66;;;8.17;100.00
58598;BME280;64549;46.910;16.844;2022-11-03T02:39:01;100360.88;;;7.97;100.00
58598;BME280;64549;46.910;16.844;2022-11-03T02:44:15;100357.25;;;7.86;100.00
58598;BME280;64549;46.910;16.844;2022-11-03T02:49:16;100350.16;;;7.73;100.00
58598;BME280;64549;46.910;16.844;2022-11-03T02:54:21;100354.91;;;7.68;100.00
58598;BME280;64549;46.910;16.844;2022-11-03T02:59:38;100355.22;;;7.50;100.00
58598;BME280;64549;46.910;16.844;2022-11-03T03:04:48;100349.59;;;7.42;100.00
58598;BME280;64549;46.910;16.844;2022-11-03T03:09:59;100348.13;;;7.38;100.00
58598;BME280;64549;46.910;16.844;2022-11-03T03:15:03;100337.31;;;7.28;100.00
58598;BME280;64549;46.910;16.844;2022-11-03T03:20:11;100333.28;;;7.22;100.00
58598;BME280;64549;46.910;16.844;2022-11-03T03:25:19;100330.25;;;7.14;100.00
58598;BME280;64549;46.910;16.844;2022-11-03T03:30:22;100330.88;;;7.04;100.00
58598;BME280;64549;46.910;16.844;2022-11-03T03:35:25;100338.19;;;7.01;100.00
58598;BME280;64549;46.910;16.844;2022-11-03T03:40:37;100334.16;;;6.95;100.00
58598;BME280;64549;46.910;16.844;2022-11-03T03:45:42;100330.84;;;6.91;100.00
58598;BME280;64549;46.910;16.844;2022-11-03T03:50:46;100332.63;;;6.91;100.00
58598;BME280;64549;46.910;16.844;2022-11-03T03:55:50;100338.28;;;6.99;100.00
58598;BME280;64549;46.910;16.844;2022-11-03T04:00:51;100332.72;;;7.17;100.00
58598;BME280;64549;46.910;16.844;2022-11-03T04:05:54;100329.50;;;7.39;100.00
58598;BME280;64549;46.910;16.844;2022-11-03T04:10:55;100332.47;;;7.61;100.00
58598;BME280;64549;46.910;16.844;2022-11-03T04:16:14;100322.41;;;7.79;100.00
58598;BME280;64549;46.910;16.844;2022-11-03T04:21:33;100319.66;;;7.93;100.00
58598;BME280;64549;46.910;16.844;2022-11-03T04:27:03;100321.75;;;8.14;100.00
58598;BME280;64549;46.910;16.844;2022-11-03T04:32:13;100319.69;;;8.31;100.00
58598;BME280;64549;46.910;16.844;2022-11-03T04:37:18;100312.56;;;8.44;100.00
58598;BME280;64549;46.910;16.844;2022-11-03T04:42:20;100301.84;;;8.46;100.00
58598;BME280;64549;46.910;16.844;2022-11-03T04:47:21;100290.06;;;8.50;100.00
58598;BME280;64549;46.910;16.844;2022-11-03T04:52:21;100291.97;;;8.48;100.00
58598;BME280;64549;46.910;16.844;2022-11-03T04:57:27;100280.09;;;8.54;100.00
58598;BME280;64549;46.910;16.844;2022-11-03T05:02:27;100267.91;;;8.51;100.00
58598;BME280;64549;46.910;16.844;2022-11-03T05:07:33;100274.69;;;8.55;100.00
58598;BME280;64549;46.910;16.844;2022-11-03T05:12:34;100263.75;;;8.60;100.00
58598;BME280;64549;46.910;16.844;2022-11-03T05:17:36;100269.78;;;8.62;100.00
58598;BME280;64549;46.910;16.844;2022-11-03T05:22:36;100254.16;;;8.70;100.00
58598;BME280;64549;46.910;16.844;2022-11-03T05:27:37;100247.28;;;8.68;100.00
58598;BME280;64549;46.910;16.844;2022-11-03T05:32:38;100240.28;;;8.67;100.00
58598;BME280;64549;46.910;16.844;2022-11-03T05:37:40;100228.59;;;8.69;100.00
58598;BME280;64549;46.910;16.844;2022-11-03T05:42:43;100246.34;;;8.69;100.00
58598;BME280;64549;46.910;16.844;2022-11-03T05:47:49;100249.22;;;8.66;100.00
58598;BME280;64549;46.910;16.844;2022-11-03T05:52:58;100258.28;;;8.75;100.00
58598;BME280;64549;46.910;16.844;2022-11-03T06:03:28;100256.06;;;8.93;100.00
58598;BME280;64549;46.910;16.844;2022-11-03T06:08:33;100259.56;;;9.98;100.00
58598;BME280;64549;46.910;16.844;2022-11-03T06:13:36;100258.50;;;10.68;100.00
58598;BME280;64549;46.910;16.844;2022-11-03T06:18:37;100257.09;;;12.11;100.00
58598;BME280;64549;46.910;16.844;2022-11-03T06:23:38;100256.03;;;13.22;100.00
58598;BME280;64549;46.910;16.844;2022-11-03T06:28:40;100254.94;;;12.95;100.00
58598;BME280;64549;46.910;16.844;2022-11-03T06:33:40;100260.94;;;13.37;100.00
58598;BME280;64549;46.910;16.844;2022-11-03T06:38:50;100263.31;;;13.40;100.00
58598;BME280;64549;46.910;16.844;2022-11-03T06:43:53;100278.09;;;13.34;100.00
58598;BME280;64549;46.910;16.844;2022-11-03T06:49:00;100268.56;;;12.63;100.00
58598;BME280;64549;46.910;16.844;2022-11-03T06:54:04;100263.75;;;13.26;100.00
58598;BME280;64549;46.910;16.844;2022-11-03T06:59:10;100263.44;;;13.58;100.00
58598;BME280;64549;46.910;16.844;2022-11-03T07:09:23;100249.66;;;13.53;100.00
58598;BME280;64549;46.910;16.844;2022-11-03T07:14:30;100269.91;;;13.46;100.00
58598;BME280;64549;46.910;16.844;2022-11-03T07:19:36;100273.16;;;13.40;100.00
58598;BME280;64549;46.910;16.844;2022-11-03T07:24:40;100278.91;;;13.35;100.00
58598;BME280;64549;46.910;16.844;2022-11-03T07:29:42;100284.56;;;13.32;100.00
58598;BME280;64549;46.910;16.844;2022-11-03T07:34:42;100294.81;;;13.27;100.00
58598;BME280;64549;46.910;16.844;2022-11-03T07:39:45;100285.66;;;13.29;100.00
58598;BME280;64549;46.910;16.844;2022-11-03T07:44:49;100279.06;;;13.33;100.00
58598;BME280;64549;46.910;16.844;2022-11-03T07:49:51;100264.31;;;13.29;100.00
58598;BME280;64549;46.910;16.844;2022-11-03T07:54:54;100255.28;;;13.40;100.00
58598;BME280;64549;46.910;16.844;2022-11-03T08:00:00;100251.94;;;13.76;100.00
58598;BME280;64549;46.910;16.844;2022-11-03T08:05:03;100245.41;;;13.98;100.00
58598;BME280;64549;46.910;16.844;2022-11-03T08:10:04;100234.66;;;14.08;100.00
58598;BME280;64549;46.910;16.844;2022-11-03T08:15:06;100244.53;;;14.26;100.00
58598;BME280;64549;46.910;16.844;2022-11-03T08:20:07;100237.28;;;14.36;100.00
58598;BME280;64549;46.910;16.844;2022-11-03T08:25:08;100230.19;;;14.45;100.00
58598;BME280;64549;46.910;16.844;2022-11-03T08:30:09;100242.03;;;14.61;100.00
58598;BME280;64549;46.910;16.844;2022-11-03T08:35:09;100228.66;;;14.97;100.00
58598;BME280;64549;46.910;16.844;2022-11-03T08:40:10;100231.31;;;15.15;100.00
58598;BME280;64549;46.910;16.844;2022-11-03T08:45:11;100223.63;;;15.47;100.00
58598;BME280;64549;46.910;16.844;2022-11-03T08:50:12;100226.34;;;15.56;100.00
58598;BME280;64549;46.910;16.844;2022-11-03T08:55:12;100218.22;;;15.65;100.00
58598;BME280;64549;46.910;16.844;2022-11-03T09:00:13;100201.25;;;16.00;99.41
58598;BME280;64549;46.910;16.844;2022-11-03T09:05:16;100194.66;;;15.94;94.19
58598;BME280;64549;46.910;16.844;2022-11-03T09:10:16;100186.56;;;15.77;94.71
58598;BME280;64549;46.910;16.844;2022-11-03T09:15:17;100177.56;;;15.87;96.56
58598;BME280;64549;46.910;16.844;2022-11-03T09:20:17;100179.09;;;15.89;93.61
58598;BME280;64549;46.910;16.844;2022-11-03T09:25:18;100165.25;;;15.68;93.40
58598;BME280;64549;46.910;16.844;2022-11-03T09:30:18;100163.72;;;15.57;91.89
58598;BME280;64549;46.910;16.844;2022-11-03T09:35:23;100154.91;;;15.38;93.56
58598;BME280;64549;46.910;16.844;2022-11-03T09:40:23;100147.38;;;15.41;90.60
58598;BME280;64549;46.910;16.844;2022-11-03T09:45:24;100139.81;;;15.80;94.80
58598;BME280;64549;46.910;16.844;2022-11-03T09:50:25;100136.50;;;15.95;91.13
58598;BME280;64549;46.910;16.844;2022-11-03T09:55:26;100117.88;;;15.85;87.37
58598;BME280;64549;46.910;16.844;2022-11-03T10:00:26;100103.13;;;15.81;85.79
58598;BME280;64549;46.910;16.844;2022-11-03T10:05:27;100085.75;;;16.10;84.69
58598;BME280;64549;46.910;16.844;2022-11-03T10:10:28;100083.06;;;16.01;80.36
58598;BME280;64549;46.910;16.844;2022-11-03T10:15:29;100081.56;;;16.15;76.85
58598;BME280;64549;46.910;16.844;2022-11-03T10:20:30;100074.19;;;16.42;73.69
58598;BME280;64549;46.910;16.844;2022-11-03T10:25:36;100062.97;;;16.22;72.22
58598;BME280;64549;46.910;16.844;2022-11-03T10:35:56;100049.56;;;16.39;73.68
58598;BME280;64549;46.910;16.844;2022-11-03T10:41:21;100038.16;;;16.12;71.68
58598;BME280;64549;46.910;16.844;2022-11-03T10:46:22;100030.91;;;15.87;73.60
58598;BME280;64549;46.910;16.844;2022-11-03T10:51:25;100011.81;;;16.15;71.67
58598;BME280;64549;46.910;16.844;2022-11-03T10:56:26;100005.09;;;16.45;71.06
58598;BME280;64549;46.910;16.844;2022-11-03T11:01:26;99993.50;;;16.44;70.73
58598;BME280;64549;46.910;16.844;2022-11-03T11:06:28;99989.84;;;16.93;71.53
58598;BME280;64549;46.910;16.844;2022-11-03T11:11:29;99979.16;;;16.85;72.59
58598;BME280;64549;46.910;16.844;2022-11-03T11:16:50;99969.69;;;16.98;72.34
58598;BME280;64549;46.910;16.844;2022-11-03T11:26:52;99968.81;;;16.57;73.99
58598;BME280;64549;46.910;16.844;2022-11-03T11:31:56;99959.13;;;16.48;76.48
58598;BME280;64549;46.910;16.844;2022-11-03T11:58:00;99884.38;;;17.00;76.52
58598;BME280;64549;46.910;16.844;2022-11-03T12:03:03;99883.31;;;17.17;82.58
58598;BME280;64549;46.910;16.844;2022-11-03T12:08:19;99870.50;;;17.43;79.54
58598;BME280;64549;46.910;16.844;2022-11-03T12:13:49;99863.00;;;16.83;79.47
58598;BME280;64549;46.910;16.844;2022-11-03T12:18:52;99853.22;;;16.59;83.49
58598;BME280;64549;46.910;16.844;2022-11-03T12:23:53;99835.06;;;16.29;86.61
58598;BME280;64549;46.910;16.844;2022-11-03T12:28:53;99823.22;;;16.15;86.23
58598;BME280;64549;46.910;16.844;2022-11-03T12:33:54;99813.66;;;16.21;87.62
58598;BME280;64549;46.910;16.844;2022-11-03T12:38:54;99811.22;;;16.34;88.38
58598;BME280;64549;46.910;16.844;2022-11-03T12:43:55;99795.72;;;16.53;88.63
58598;BME280;64549;46.910;16.844;2022-11-03T12:48:55;99790.16;;;16.54;88.45
58598;BME280;64549;46.910;16.844;2022-11-03T12:53:56;99782.06;;;16.63;89.17
58598;BME280;64549;46.910;16.844;2022-11-03T12:58:56;99771.09;;;16.49;88.90
58598;BME280;64549;46.910;16.844;2022-11-03T13:03:57;99769.59;;;16.70;90.23
58598;BME280;64549;46.910;16.844;2022-11-03T13:08:58;99768.97;;;16.68;88.23
58598;BME280;64549;46.910;16.844;2022-11-03T13:13:58;99764.72;;;16.74;89.26
58598;BME280;64549;46.910;16.844;2022-11-03T13:18:59;99764.06;;;16.72;88.26
58598;BME280;64549;46.910;16.844;2022-11-03T13:23:59;99755.72;;;16.66;88.13
58598;BME280;64549;46.910;16.844;2022-11-03T13:28:59;99746.19;;;16.55;88.42
58598;BME280;64549;46.910;16.844;2022-11-03T13:34:00;99739.88;;;16.48;90.05
58598;BME280;64549;46.910;16.844;2022-11-03T13:39:00;99739.53;;;16.51;90.96
58598;BME280;64549;46.910;16.844;2022-11-03T13:44:04;99726.84;;;16.37;89.23
58598;BME280;64549;46.910;16.844;2022-11-03T13:49:04;99711.31;;;16.32;90.56
58598;BME280;64549;46.910;16.844;2022-11-03T13:54:05;99706.34;;;16.21;89.80
58598;BME280;64549;46.910;16.844;2022-11-03T13:59:06;99711.88;;;16.19;89.54
58598;BME280;64549;46.910;16.844;2022-11-03T14:04:06;99704.91;;;16.01;89.81
58598;BME280;64549;46.910;16.844;2022-11-03T14:09:07;99706.25;;;16.05;91.05
58598;BME280;64549;46.910;16.844;2022-11-03T14:14:07;99690.03;;;15.99;88.54
58598;BME280;64549;46.910;16.844;2022-11-03T14:19:08;99688.59;;;16.11;88.99
58598;BME280;64549;46.910;16.844;2022-11-03T14:24:08;99688.84;;;15.93;89.01
58598;BME280;64549;46.910;16.844;2022-11-03T14:29:09;99691.06;;;15.89;90.25
58598;BME280;64549;46.910;16.844;2022-11-03T14:34:09;99685.34;;;15.84;90.97
58598;BME280;64549;46.910;16.844;2022-11-03T14:39:10;99672.84;;;15.76;91.07
58598;BME280;64549;46.910;16.844;2022-11-03T14:44:10;99673.06;;;15.66;91.46
58598;BME280;64549;46.910;16.844;2022-11-03T14:49:11;99667.06;;;15.56;92.28
58598;BME280;64549;46.910;16.844;2022-11-03T14:54:11;99661.91;;;15.46;93.59
58598;BME280;64549;46.910;16.844;2022-11-03T14:59:12;99667.31;;;15.30;94.32
58598;BME280;64549;46.910;16.844;2022-11-03T15:04:13;99663.50;;;15.15;95.39
58598;BME280;64549;46.910;16.844;2022-11-03T15:09:14;99666.19;;;14.99;97.20
58598;BME280;64549;46.910;16.844;2022-11-03T15:14:16;99657.50;;;14.80;98.93
58598;BME280;64549;46.910;16.844;2022-11-03T15:19:16;99659.97;;;14.65;100.00
58598;BME280;64549;46.910;16.844;2022-11-03T15:24:17;99651.13;;;14.56;100.00
58598;BME280;64549;46.910;16.844;2022-11-03T15:29:17;99643.09;;;14.48;100.00
58598;BME280;64549;46.910;16.844;2022-11-03T15:34:18;99635.38;;;14.36;100.00
58598;BME280;64549;46.910;16.844;2022-11-03T15:39:18;99623.03;;;14.27;100.00
58598;BME280;64549;46.910;16.844;2022-11-03T15:44:18;99626.84;;;14.24;100.00
58598;BME280;64549;46.910;16.844;2022-11-03T15:49:19;99623.03;;;14.19;100.00
58598;BME280;64549;46.910;16.844;2022-11-03T15:54:19;99632.53;;;14.21;100.00
58598;BME280;64549;46.910;16.844;2022-11-03T15:59:20;99629.00;;;14.12;100.00
58598;BME280;64549;46.910;16.844;2022-11-03T16:04:20;99614.94;;;14.02;100.00
58598;BME280;64549;46.910;16.844;2022-11-03T16:09:21;99617.13;;;13.90;100.00
58598;BME280;64549;46.910;16.844;2022-11-03T16:14:21;99595.88;;;13.80;100.00
58598;BME280;64549;46.910;16.844;2022-11-03T16:19:22;99601.34;;;13.70;100.00
58598;BME280;64549;46.910;16.844;2022-11-03T16:24:23;99597.44;;;13.56;100.00
58598;BME280;64549;46.910;16.844;2022-11-03T16:29:26;99599.72;;;13.43;100.00
58598;BME280;64549;46.910;16.844;2022-11-03T16:34:27;99597.03;;;13.34;100.00
58598;BME280;64549;46.910;16.844;2022-11-03T16:39:27;99597.16;;;13.25;100.00
58598;BME280;64549;46.910;16.844;2022-11-03T16:44:29;99592.47;;;13.27;100.00
58598;BME280;64549;46.910;16.844;2022-11-03T16:49:29;99583.28;;;13.29;100.00
58598;BME280;64549;46.910;16.844;2022-11-03T16:54:30;99571.94;;;13.19;100.00
58598;BME280;64549;46.910;16.844;2022-11-03T16:59:30;99567.91;;;13.15;100.00
58598;BME280;64549;46.910;16.844;2022-11-03T17:04:31;99576.22;;;13.12;100.00
58598;BME280;64549;46.910;16.844;2022-11-03T17:09:32;99570.38;;;13.16;100.00
58598;BME280;64549;46.910;16.844;2022-11-03T17:14:32;99565.22;;;13.15;100.00
58598;BME280;64549;46.910;16.844;2022-11-03T17:19:33;99564.03;;;13.09;100.00
58598;BME280;64549;46.910;16.844;2022-11-03T17:24:33;99574.19;;;13.05;100.00
58598;BME280;64549;46.910;16.844;2022-11-03T17:29:38;99564.97;;;13.00;100.00
58598;BME280;64549;46.910;16.844;2022-11-03T17:34:40;99558.59;;;12.92;100.00
58598;BME280;64549;46.910;16.844;2022-11-03T17:39:41;99543.97;;;12.70;100.00
58598;BME280;64549;46.910;16.844;2022-11-03T17:44:43;99529.94;;;12.68;100.00
58598;BME280;64549;46.910;16.844;2022-11-03T17:49:45;99524.44;;;12.69;100.00
58598;BME280;64549;46.910;16.844;2022-11-03T17:54:47;99512.06;;;12.60;100.00
58598;BME280;64549;46.910;16.844;2022-11-03T17:59:49;99509.34;;;12.52;100.00
58598;BME280;64549;46.910;16.844;2022-11-03T18:04:54;99495.56;;;12.38;100.00
58598;BME280;64549;46.910;16.844;2022-11-03T18:09:56;99487.31;;;12.23;100.00
58598;BME280;64549;46.910;16.844;2022-11-03T18:15:04;99494.94;;;12.18;100.00
58598;BME280;64549;46.910;16.844;2022-11-03T18:20:27;99493.34;;;12.07;100.00
58598;BME280;64549;46.910;16.844;2022-11-03T18:25:28;99479.56;;;11.93;100.00
58598;BME280;64549;46.910;16.844;2022-11-03T18:30:29;99479.81;;;11.82;100.00
58598;BME280;64549;46.910;16.844;2022-11-03T18:35:31;99473.34;;;11.66;100.00
58598;BME280;64549;46.910;16.844;2022-11-03T18:40:35;99475.16;;;11.48;100.00
58598;BME280;64549;46.910;16.844;2022-11-03T18:45:35;99474.00;;;11.32;100.00
58598;BME280;64549;46.910;16.844;2022-11-03T18:50:36;99469.88;;;11.20;100.00
58598;BME280;64549;46.910;16.844;2022-11-03T18:55:36;99465.00;;;11.15;100.00
58598;BME280;64549;46.910;16.844;2022-11-03T19:00:36;99459.72;;;11.05;100.00
58598;BME280;64549;46.910;16.844;2022-11-03T19:05:37;99447.72;;;11.01;100.00
58598;BME280;64549;46.910;16.844;2022-11-03T19:10:38;99447.00;;;10.99;100.00
58598;BME280;64549;46.910;16.844;2022-11-03T19:15:39;99445.63;;;10.95;100.00
58598;BME280;64549;46.910;16.844;2022-11-03T19:20:40;99433.22;;;10.85;100.00
58598;BME280;64549;46.910;16.844;2022-11-03T19:25:41;99427.66;;;10.78;100.00
58598;BME280;64549;46.910;16.844;2022-11-03T19:30:43;99422.69;;;10.65;100.00
58598;BME280;64549;46.910;16.844;2022-11-03T19:35:43;99418.53;;;10.53;100.00
58598;BME280;64549;46.910;16.844;2022-11-03T19:40:45;99413.34;;;10.41;100.00
58598;BME280;64549;46.910;16.844;2022-11-03T19:46:04;99405.56;;;10.30;100.00
58598;BME280;64549;46.910;16.844;2022-11-03T19:51:05;99401.13;;;10.21;100.00
58598;BME280;64549;46.910;16.844;2022-11-03T19:56:06;99399.19;;;10.13;100.00
58598;BME280;64549;46.910;16.844;2022-11-03T20:01:07;99385.59;;;10.16;100.00
58598;BME280;64549;46.910;16.844;2022-11-03T20:06:08;99388.56;;;10.03;100.00
58598;BME280;64549;46.910;16.844;2022-11-03T20:11:09;99380.50;;;9.95;100.00
58598;BME280;64549;46.910;16.844;2022-11-03T20:16:12;99367.50;;;9.82;100.00
58598;BME280;64549;46.910;16.844;2022-11-03T20:21:17;99371.31;;;9.69;100.00
58598;BME280;64549;46.910;16.844;2022-11-03T20:26:21;99367.00;;;9.58;100.00
58598;BME280;64549;46.910;16.844;2022-11-03T20:31:22;99358.31;;;9.56;100.00
58598;BME280;64549;46.910;16.844;2022-11-03T20:36:25;99343.38;;;9.55;100.00
58598;BME280;64549;46.910;16.844;2022-11-03T20:41:30;99333.91;;;9.53;100.00
58598;BME280;64549;46.910;16.844;2022-11-03T20:46:32;99325.94;;;9.53;100.00
58598;BME280;64549;46.910;16.844;2022-11-03T20:51:34;99318.66;;;9.45;100.00
58598;BME280;64549;46.910;16.844;2022-11-03T20:56:36;99312.81;;;9.41;100.00
58598;BME280;64549;46.910;16.844;2022-11-03T21:01:36;99314.34;;;9.44;100.00
58598;BME280;64549;46.910;16.844;2022-11-03T21:06:36;99299.28;;;9.44;100.00
58598;BME280;64549;46.910;16.844;2022-11-03T21:11:37;99293.09;;;9.44;100.00
58598;BME280;64549;46.910;16.844;2022-11-03T21:16:40;99288.66;;;9.44;100.00
58598;BME280;64549;46.910;16.844;2022-11-03T21:21:59;99283.50;;;9.33;100.00
58598;BME280;64549;46.910;16.844;2022-11-03T21:26:59;99270.22;;;9.43;100.00
58598;BME280;64549;46.910;16.844;2022-11-03T21:32:00;99268.81;;;9.48;100.00
58598;BME280;64549;46.910;16.844;2022-11-03T21:37:00;99268.94;;;9.47;100.00
58598;BME280;64549;46.910;16.844;2022-11-03T21:42:01;99254.53;;;9.49;100.00
58598;BME280;64549;46.910;16.844;2022-11-03T21:47:20;99255.47;;;9.68;100.00
58598;BME280;64549;46.910;16.844;2022-11-03T21:52:21;99257.00;;;9.71;100.00
58598;BME280;64549;46.910;16.844;2022-11-03T21:57:31;99242.31;;;9.76;100.00
58598;BME280;64549;46.910;16.844;2022-11-03T22:02:31;99247.72;;;9.85;100.00
58598;BME280;64549;46.910;16.844;2022-11-03T22:07:31;99236.81;;;9.88;100.00
58598;BME280;64549;46.910;16.844;2022-11-03T22:12:32;99222.97;;;9.94;100.00
58598;BME280;64549;46.910;16.844;2022-11-03T22:17:32;99226.13;;;9.98;100.00
58598;BME280;64549;46.910;16.844;2022-11-03T22:22:33;99211.56;;;10.02;100.00
58598;BME280;64549;46.910;16.844;2022-11-03T22:27:52;99205.38;;;10.11;100.00
58598;BME280;64549;46.910;16.844;2022-11-03T22:32:54;99195.59;;;10.12;100.00
58598;BME280;64549;46.910;16.844;2022-11-03T22:38:07;99189.06;;;10.24;100.00
58598;BME280;64549;46.910;16.844;2022-11-03T22:43:08;99172.44;;;10.22;100.00
58598;BME280;64549;46.910;16.844;2022-11-03T22:48:40;99186.09;;;10.27;100.00
58598;BME280;64549;46.910;16.844;2022-11-03T22:53:42;99181.66;;;10.28;100.00
58598;BME280;64549;46.910;16.844;2022-11-03T22:59:01;99172.00;;;10.27;100.00
58598;BME280;64549;46.910;16.844;2022-11-03T23:04:04;99163.34;;;10.25;100.00
58598;BME280;64549;46.910;16.844;2022-11-03T23:09:05;99147.69;;;10.22;100.00
58598;BME280;64549;46.910;16.844;2022-11-03T23:14:08;99141.00;;;10.18;100.00
58598;BME280;64549;46.910;16.844;2022-11-03T23:19:10;99134.03;;;10.17;100.00
58598;BME280;64549;46.910;16.844;2022-11-03T23:24:30;99129.00;;;10.13;100.00
58598;BME280;64549;46.910;16.844;2022-11-03T23:29:49;99118.00;;;10.08;100.00
58598;BME280;64549;46.910;16.844;2022-11-03T23:34:49;99111.91;;;9.98;100.00
58598;BME280;64549;46.910;16.844;2022-11-03T23:39:50;99112.91;;;9.97;100.00
58598;BME280;64549;46.910;16.844;2022-11-03T23:44:51;99097.84;;;9.87;100.00
58598;BME280;64549;46.910;16.844;2022-11-03T23:50:10;99090.28;;;9.93;100.00
58598;BME280;64549;46.910;16.844;2022-11-03T23:55:10;99079.41;;;9.86;100.00
